Latest Weather Observations for Yunta

IDS60801

Issued at 9:31 pm CST Saturday 1 October 2016 (issued every 30 minutes, with the page automatically refreshed every 10 minutes)

About weather observations | Map of weather stations | Latest weather observations for SA | Other Formats
Station Details ID: 020062 Name: YUNTA AIRSTRIP Lat: -32.57 Lon: 139.56 Height: 300.0 m
Data from the previous 72 hours. | See also: Recent months at Yunta
Date/Time
CST
Temp
°C
App
Temp
°C
Dew
Point
°C
Rel
Hum
%
Delta-T
°C
Wind Press
QNH
hPa
Press
MSL
hPa
Rain since
9am
mm
Dir  Spd
km/h
Gust
km/h
Spd
kts
Gust
kts
01/09:30pm 18.5 10.0 0.6 30 8.1 N 35 48 19 26 1004.2 1003.5 0.0
01/09:00pm 18.5 10.5 0.6 30 8.1 N 32 43 17 23 1004.7 1004.0 0.0
01/08:30pm 18.9 11.4 1.0 30 8.2 N 30 39 16 21 1005.1 1004.3 0.0
01/08:00pm 18.8 13.3 0.4 29 8.2 N 19 28 10 15 1005.0 1004.2 0.0
01/07:30pm 19.2 13.7 0.3 28 8.5 N 19 28 10 15 1005.0 1004.2 0.0
01/07:00pm 19.3 13.8 0.8 29 8.4 NNE 19 28 10 15 1004.8 1004.1 0.0
01/06:30pm 18.4 14.5 1.4 32 7.8 NNE 11 19 6 10 1005.1 1004.3 0.0
01/06:00pm 19.9 14.8 0.9 28 8.7 N 17 24 9 13 1005.2 1004.4 0.0
01/05:30pm 21.1 14.6 0.3 25 9.5 NNW 24 35 13 19 1005.3 1004.5 0.0
01/05:00pm 21.7 15.2 0.3 24 9.8 NNW 24 35 13 19 1005.4 1004.6 0.0
01/04:30pm 22.0 15.5 0.5 24 9.9 NNW 24 32 13 17 1005.7 1005.0 0.0
01/04:00pm 22.2 15.0 0.7 24 10.0 NNW 28 41 15 22 1005.6 1004.9 0.0
01/03:30pm 22.2 16.1 0.1 23 10.2 NNW 22 32 12 17 1005.7 1005.0 0.0
01/03:00pm 21.8 15.4 0.9 25 9.7 NNW 24 33 13 18 1006.0 1005.3 0.0
01/02:30pm 21.2 15.3 2.0 28 9.1 NW 22 32 12 17 1006.4 1005.7 0.0
01/02:00pm 21.2 15.2 3.4 31 8.6 NNW 24 35 13 19 1006.7 1006.0 0.0
01/01:30pm 20.3 14.3 3.1 32 8.3 NNW 24 35 13 19 1007.3 1006.6 0.0
01/01:00pm 19.4 12.8 4.4 37 7.3 NNW 28 39 15 21 1007.6 1006.9 0.0
01/12:30pm 18.7 12.2 4.8 40 6.8 NNW 28 39 15 21 1008.2 1007.5 0.0
01/12:00pm 18.8 12.5 3.8 37 7.2 NNW 26 35 14 19 1008.3 1007.7 0.0
01/11:30am 17.5 11.6 3.8 40 6.5 NNW 24 33 13 18 1008.8 1008.1 0.0
01/11:00am 16.9 11.1 4.6 44 5.9 NNW 24 33 13 18 1008.9 1008.2 0.0
01/10:30am 16.3 11.6 5.0 47 5.5 NW 19 28 10 15 1009.4 1008.7 0.0
01/10:00am 15.2 10.4 5.7 53 4.6 NNW 20 28 11 15 1009.8 1009.1 0.0
01/09:30am 14.7 10.0 5.2 53 4.6 NW 19 30 10 16 1009.8 1009.1 0.0
01/09:00am 13.7 9.7 6.6 62 3.5 NNW 17 22 9 12 1010.0 1009.7 0.0
01/08:30am 12.3 8.5 7.4 72 2.4 NNW 17 20 9 11 1009.9 1009.6 0.0
01/08:00am 10.8 7.1 8.0 83 1.4 NNW 17 20 9 11 1010.0 1009.7 0.0
01/07:30am 8.9 5.9 7.5 91 0.7 N 13 17 7 9 1010.0 1009.7 0.0
01/07:00am 6.9 3.5 5.8 93 0.5 N 13 17 7 9 1009.8 1009.5 0.0
01/06:30am 6.1 3.3 5.1 93 0.4 N 9 13 5 7 1009.5 1009.1 0.0
01/06:00am 5.5 2.6 4.5 93 0.4 N 9 13 5 7 1009.4 1009.0 0.0
01/05:30am 5.6 2.7 4.4 92 0.5 NNW 9 11 5 6 1009.0 1008.6 0.0
01/05:00am 6.1 2.8 4.7 91 0.6 N 11 13 6 7 1008.7 1008.3 0.0
01/04:30am 6.7 3.2 5.3 91 0.6 N 13 15 7 8 1008.3 1008.0 0.0
01/04:00am 7.2 4.5 5.7 90 0.7 NW 9 11 5 6 1008.0 1007.7 0.0
01/03:30am 7.9 4.6 6.2 89 0.8 WNW 13 13 7 7 1007.9 1007.6 0.0
01/03:00am 7.7 5.5 6.0 89 0.8 WNW 7 9 4 5 1007.9 1007.6 0.0
01/02:30am 8.1 5.6 6.4 89 0.8 WNW 9 11 5 6 1008.1 1007.8 0.0
01/02:00am 8.2 5.3 6.5 89 0.8 WNW 11 13 6 7 1008.0 1007.7 0.0
01/01:30am 8.9 6.5 7.0 88 0.9 NW 9 11 5 6 1008.1 1007.8 0.0
01/01:00am 9.0 6.6 7.0 87 1.0 WNW 9 11 5 6 1008.2 1007.9 0.0
01/12:30am 9.7 7.4 7.6 87 1.0 WNW 9 13 5 7 1008.3 1008.0 0.0
01/12:00am 9.7 6.3 7.6 87 1.0 W 15 20 8 11 1008.6 1008.2 0.0
 
Date/Time
CST
Temp
°C
App
Temp
°C
Dew
Point
°C
Rel
Hum
%
Delta-T
°C
Wind Press
QNH
hPa
Press
MSL
hPa
Rain since
9am
mm
Dir  Spd
km/h
Gust
km/h
Spd
kts
Gust
kts
30/11:30pm 9.3 7.0 7.4 88 0.9 W 9 13 5 7 1008.3 1008.0 0.0
30/11:00pm 9.4 7.4 7.0 85 1.1 W 7 9 4 5 1008.0 1007.7 0.0
30/10:30pm 10.3 6.5 7.4 82 1.4 W 17 20 9 11 1008.1 1007.8 0.0
30/10:00pm 10.6 6.9 7.8 83 1.4 WNW 17 20 9 11 1008.6 1008.2 0.0
30/09:30pm 10.6 7.7 8.0 84 1.3 WNW 13 19 7 10 1008.3 1008.0 0.0
30/09:00pm 10.4 7.8 7.8 84 1.3 WNW 11 15 6 8 1008.1 1007.8 0.0
30/08:30pm 10.9 7.6 8.0 82 1.4 W 15 19 8 10 1008.5 1008.1 0.0
30/08:00pm 11.3 8.3 7.8 79 1.7 W 13 17 7 9 1008.0 1007.7 0.0
30/07:30pm 11.9 8.9 7.6 75 2.1 W 13 20 7 11 1007.7 1007.4 0.0
30/07:00pm 12.0 9.0 7.9 76 2.0 WSW 13 17 7 9 1007.4 1007.1 0.0
30/06:30pm 12.1 8.3 7.6 74 2.2 WSW 17 22 9 12 1007.1 1006.8 0.0
30/06:00pm 12.4 8.0 7.5 72 2.4 WSW 20 30 11 16 1006.7 1006.3 0.0
30/05:30pm 13.4 8.6 7.4 67 3.0 W 22 28 12 15 1006.5 1006.1 0.0
30/05:00pm 13.7 8.8 7.0 64 3.3 WSW 22 30 12 16 1006.2 1005.8 0.0
30/04:30pm 14.6 9.7 6.9 60 3.8 WSW 22 32 12 17 1005.8 1005.4 0.0
30/04:00pm 14.6 8.9 6.9 60 3.8 WSW 26 37 14 20 1005.7 1005.3 0.0
30/03:30pm 14.0 7.3 7.5 65 3.3 WSW 32 43 17 23 1005.5 1005.1 0.0
30/03:00pm 14.6 7.8 7.6 63 3.5 W 33 46 18 25 1005.5 1005.1 0.0
30/02:30pm 13.8 7.8 8.8 72 2.6 W 30 44 16 24 1005.9 1005.5 0.0
30/02:00pm 14.2 6.8 8.4 68 3.0 W 37 48 20 26 1005.7 1005.3 0.0
30/01:54pm 14.7 6.5 8.4 66 3.2 W 41 61 22 33 1005.7 1005.3 0.0
30/01:30pm 15.4 7.7 8.6 64 3.5 W 39 52 21 28 1005.4 1005.0 0.0
30/01:00pm 15.6 7.9 8.8 64 3.5 W 39 52 21 28 1005.4 1005.0 0.0
30/12:30pm 14.5 6.8 8.7 68 3.0 W 39 52 21 28 1005.3 1004.9 0.0
30/12:00pm 14.4 6.6 8.4 67 3.1 W 39 52 21 28 1005.3 1004.9 0.0
30/11:30am 13.7 6.3 8.5 71 2.7 W 37 50 20 27 1004.8 1004.5 0.0
30/11:20am 13.3 7.7 8.6 73 2.4 W 28 50 15 27 1005.0 1004.6 0.0
30/11:00am 12.9 6.9 8.6 75 2.2 W 30 39 16 21 1005.0 1004.6 0.0
30/10:30am 13.2 5.7 7.9 70 2.7 W 37 56 20 30 1004.6 1004.3 0.0
30/10:21am 13.5 6.3 7.7 68 2.9 W 35 56 19 30 1004.4 1004.1 0.0
30/10:00am 14.1 6.5 7.6 65 3.3 WSW 37 48 20 26 1004.1 1003.8 0.0
30/09:30am 13.0 6.4 7.9 71 2.6 WSW 32 43 17 23 1004.0 1003.7 0.0
30/09:00am 11.5 5.2 7.4 76 2.0 W 30 37 16 20 1003.9 1003.5 0.4
30/08:30am 10.9 5.0 7.6 80 1.6 W 28 37 15 20 1003.5 1003.1 0.4
30/08:00am 9.4 4.1 7.0 85 1.1 W 24 33 13 18 1003.1 1002.7 0.4
30/07:30am 9.2 3.5 6.8 85 1.1 W 26 35 14 19 1003.1 1002.7 0.4
30/07:00am 8.2 2.8 6.2 87 0.9 W 24 32 13 17 1002.9 1002.5 0.4
30/06:30am 7.4 1.1 5.7 89 0.8 W 28 37 15 20 1002.5 1002.1 0.4
30/06:00am 7.2 1.2 5.5 89 0.8 W 26 35 14 19 1002.4 1002.0 0.4
30/05:30am 7.3 -0.1 5.0 85 1.0 W 33 43 18 23 1001.3 1001.0 0.4
30/05:00am 7.5 -0.7 4.6 82 1.3 W 37 52 20 28 1000.3 999.9 0.4
30/04:43am 7.5 -0.8 4.3 80 1.4 W 37 57 20 31 1000.1 999.7 0.4
30/04:30am 7.3 -1.0 4.1 80 1.4 W 37 50 20 27 999.9 999.5 0.4
30/04:00am 7.5 -1.2 4.3 80 1.4 W 39 54 21 29 999.3 998.9 0.4
30/03:30am 7.5 -1.6 4.1 79 1.5 W 41 54 22 29 999.2 998.8 0.4
30/03:00am 7.7 -1.0 4.3 79 1.5 WNW 39 57 21 31 999.2 998.8 0.4
30/02:35am 7.7 -0.5 4.5 80 1.4 WNW 37 61 20 33 998.9 998.5 0.4
30/02:30am 7.6 -0.6 4.6 81 1.3 WNW 37 52 20 28 999.0 998.6 0.4
30/02:00am 7.7 -1.7 4.5 80 1.4 W 43 59 23 32 999.1 998.7 0.4
30/01:41am 7.6 -1.0 4.9 83 1.2 WNW 39 57 21 31 999.4 999.0 0.4
30/01:30am 7.4 -2.1 4.9 84 1.1 WNW 44 59 24 32 999.1 998.7 0.4
30/01:18am 7.8 -1.2 4.7 81 1.4 WNW 41 67 22 36 999.6 999.2 0.4
30/01:00am 8.1 -0.5 4.9 80 1.4 WNW 39 50 21 27 999.7 999.3 0.4
30/12:30am 7.8 -0.3 5.4 85 1.1 W 37 56 20 30 999.8 999.4 0.4
30/12:25am 8.1 0.4 5.2 82 1.3 W 35 56 19 30 999.8 999.4 0.4
30/12:00am 8.5 -0.4 5.1 79 1.6 W 41 57 22 31 999.3 998.9 0.4
 
Date/Time
CST
Temp
°C
App
Temp
°C
Dew
Point
°C
Rel
Hum
%
Delta-T
°C
Wind Press
QNH
hPa
Press
MSL
hPa
Rain since
9am
mm
Dir  Spd
km/h
Gust
km/h
Spd
kts
Gust
kts
29/11:42pm 8.3 -0.6 5.2 81 1.4 WNW 41 59 22 32 999.3 998.9 0.4
29/11:30pm 8.4 -0.5 5.3 81 1.4 WNW 41 57 22 31 999.3 998.9 0.4
29/11:01pm 8.6 -0.3 5.2 79 1.5 WNW 41 59 22 32 999.2 998.8 0.4
29/11:00pm 8.6 0.1 5.2 79 1.5 WNW 39 57 21 31 999.4 999.0 0.4
29/10:33pm 8.9 0.4 5.1 77 1.7 W 39 61 21 33 999.4 999.0 0.4
29/10:30pm 8.8 0.3 5.2 78 1.7 W 39 57 21 31 999.5 999.1 0.4
29/10:00pm 8.9 -0.5 5.3 78 1.6 W 44 59 24 32 999.4 999.0 0.4
29/09:30pm 9.0 -0.2 5.4 78 1.7 W 43 57 23 31 999.4 999.0 0.4
29/09:00pm 9.1 -0.1 5.5 78 1.7 W 43 61 23 33 999.2 998.8 0.4
29/08:46pm 9.1 -0.3 5.5 78 1.7 W 44 65 24 35 999.1 998.7 0.4
29/08:30pm 9.2 -0.2 5.4 77 1.8 WNW 44 59 24 32 998.6 998.2 0.4
29/08:00pm 9.2 -0.6 5.4 77 1.7 W 46 69 25 37 998.4 998.0 0.4
29/07:30pm 9.2 -1.0 5.4 77 1.8 W 48 69 26 37 997.7 997.3 0.4
29/07:00pm 9.4 -1.2 5.2 75 1.9 W 50 72 27 39 997.0 996.6 0.4
29/06:30pm 9.6 -1.7 5.2 74 2.0 W 54 74 29 40 996.4 996.0 0.4
29/06:00pm 9.9 -1.4 5.3 73 2.1 W 54 78 29 42 995.9 995.5 0.4
29/05:30pm 10.2 0.8 5.2 71 2.3 W 44 63 24 34 995.6 995.2 0.4
29/05:00pm 10.4 -0.5 5.6 72 2.2 W 52 74 28 40 995.1 994.6 0.4
29/04:30pm 10.5 -1.1 5.9 73 2.2 W 56 74 30 40 994.9 994.4 0.4
29/04:00pm 10.9 -1.3 5.4 69 2.6 W 59 80 32 43 994.3 993.9 0.4
29/03:30pm 11.1 0.6 5.8 70 2.5 W 50 70 27 38 993.9 993.5 0.4
29/03:00pm 11.6 -0.2 5.9 68 2.7 W 57 80 31 43 993.8 993.4 0.4
29/02:30pm 11.7 1.0 6.4 70 2.6 W 52 74 28 40 993.3 992.9 0.4
29/02:00pm 12.2 1.7 7.3 72 2.4 W 52 74 28 40 992.6 992.1 0.4
29/01:30pm 10.4 1.7 7.5 82 1.4 W 43 67 23 36 993.3 992.9 0.2
29/01:22pm 10.5 1.5 7.4 81 1.5 WNW 44 67 24 36 993.3 992.9 0.2
29/01:00pm 10.7 0.9 7.2 79 1.7 WNW 48 65 26 35 993.2 992.8 0.2
29/12:30pm 10.2 0.8 7.1 81 1.5 WNW 46 67 25 36 993.1 992.7 0.2
29/12:02pm 10.8 -1.0 5.6 70 2.4 WNW 57 78 31 42 992.6 992.1 0.0
29/12:00pm 10.8 -1.6 4.9 67 2.8 WNW 59 78 32 42 992.5 992.0 0.0
29/11:30am 11.6 -1.5 4.8 63 3.2 WNW 63 83 34 45 991.7 991.2 0.0
29/11:00am 11.2 -1.1 5.1 66 2.8 NW 59 80 32 43 991.9 991.4 0.0
29/10:30am 10.6 -0.3 5.6 71 2.4 NW 52 78 28 42 992.1 991.6 0.0
29/10:03am 9.6 -0.3 5.0 73 2.1 NW 46 67 25 36 992.8 992.4 0.0
29/10:00am 9.5 -0.3 5.1 74 2.0 NW 46 61 25 33 992.8 992.4 0.0
29/09:32am 8.1 -2.5 4.9 80 1.4 NW 50 69 27 37 992.8 992.4 0.0
29/09:30am 8.0 -3.0 4.8 80 1.5 NW 52 69 28 37 992.8 992.4 0.0
29/09:00am 7.4 -4.1 4.4 81 1.3 NW 54 74 29 40 992.7 992.3 12.8
29/08:30am 7.1 -3.8 3.7 79 1.5 NW 50 70 27 38 992.3 991.8 12.8
29/08:00am 7.1 -4.9 3.7 79 1.5 NW 56 80 30 43 992.4 991.9 12.8
29/07:30am 6.5 -5.6 3.3 80 1.4 NW 56 82 30 44 992.3 991.8 12.8
29/07:00am 6.6 -4.4 3.0 78 1.5 NW 50 69 27 37 992.6 992.1 12.6
29/06:30am 6.5 -4.2 2.4 75 1.7 NNW 48 72 26 39 992.7 992.3 12.6
29/06:11am 6.8 -3.2 2.3 73 1.9 NW 44 65 24 35 992.9 992.5 12.6
29/06:00am 7.1 -3.0 1.8 69 2.2 NW 44 63 24 34 992.9 992.5 12.6
29/05:30am 7.1 -3.0 1.8 69 2.2 NW 44 65 24 35 993.1 992.7 12.6
29/05:06am 7.3 -1.8 1.8 68 2.3 NW 39 57 21 31 993.3 992.9 12.6
29/05:00am 7.2 -1.9 1.7 68 2.3 NW 39 52 21 28 993.4 993.0 12.6
29/04:30am 7.4 -2.7 1.7 67 2.4 NW 44 63 24 34 993.4 993.0 12.6
29/04:03am 7.4 -1.7 1.9 68 2.3 NW 39 57 21 31 993.6 993.2 12.6
29/04:00am 7.4 -2.1 1.7 67 2.4 NW 41 57 22 31 993.6 993.2 12.6
29/03:30am 7.2 -1.9 1.9 69 2.2 NW 39 54 21 29 993.7 993.3 12.6
29/03:11am 7.4 -0.9 1.9 68 2.3 NW 35 56 19 30 993.8 993.4 12.6
29/03:00am 7.5 -1.6 1.8 67 2.4 NW 39 56 21 30 994.0 993.6 12.6
29/02:36am 7.4 0.0 1.9 68 2.3 NW 30 48 16 26 994.9 994.4 12.6
29/02:30am 7.5 -0.4 2.0 68 2.3 NW 33 48 18 26 995.2 994.7 12.6
29/02:00am 7.6 -0.3 2.1 68 2.3 NW 33 54 18 29 995.2 994.7 12.6
29/01:30am 7.3 -1.0 2.4 71 2.1 WNW 35 48 19 26 995.6 995.2 12.6
29/01:18am 7.3 -1.7 2.2 70 2.1 WNW 39 57 21 31 995.5 995.1 12.6
29/01:00am 7.6 -1.8 2.1 68 2.3 WNW 41 52 22 28 995.7 995.3 12.6
29/12:30am 7.3 -1.4 2.2 70 2.2 WNW 37 57 20 31 996.1 995.7 12.6
29/12:21am 7.5 -0.4 2.2 69 2.2 WNW 33 57 18 31 996.1 995.7 12.6
29/12:00am 7.7 0.4 2.2 68 2.3 WNW 30 39 16 21 996.2 995.8 12.6
 
Date/Time
CST
Temp
°C
App
Temp
°C
Dew
Point
°C
Rel
Hum
%
Delta-T
°C
Wind Press
QNH
hPa
Press
MSL
hPa
Rain since
9am
mm
Dir  Spd
km/h
Gust
km/h
Spd
kts
Gust
kts
28/11:30pm 7.9 0.1 2.8 70 2.2 WNW 33 44 18 24 996.4 996.0 12.6
28/11:00pm 8.2 0.0 2.9 69 2.3 WNW 35 50 19 27 996.7 996.3 12.6
28/10:30pm 8.6 1.8 3.2 69 2.4 WNW 28 39 15 21 996.8 996.4 12.6
28/10:00pm 9.1 -0.8 2.9 65 2.7 WNW 44 61 24 33 996.5 996.1 12.6

Other Formats:

Comma delimited format used in spreadsheet applications
http://www.bom.gov.au/fwo/IDS60801/IDS60801.94684.axf

JavaScript Object Notation format (JSON) in row-major order
http://www.bom.gov.au/fwo/IDS60801/IDS60801.94684.json